createdAt,value
2022-08-26T00:04:18.440Z,32.20
2022-08-26T00:09:22.284Z,38.70
2022-08-26T00:14:30.831Z,19.73
2022-08-26T00:19:33.989Z,33.92
2022-08-26T00:24:36.611Z,30.88
2022-08-26T00:29:39.314Z,31.83
2022-08-26T00:34:42.031Z,28.00
2022-08-26T00:39:44.929Z,28.20
2022-08-26T00:44:48.445Z,25.30
2022-08-26T00:49:53.959Z,31.50
2022-08-26T00:55:20.156Z,30.98
2022-08-26T01:00:27.800Z,31.27
2022-08-26T01:05:30.858Z,31.88
2022-08-26T01:10:33.687Z,25.90
2022-08-26T01:15:42.902Z,33.83
2022-08-26T01:20:48.249Z,31.92
2022-08-26T01:25:59.766Z,24.05
2022-08-26T01:31:05.285Z,32.92
2022-08-26T01:36:08.726Z,31.13
2022-08-26T01:41:16.270Z,31.38
2022-08-26T01:46:24.415Z,26.77
2022-08-26T01:51:28.645Z,26.70
2022-08-26T01:56:33.331Z,33.05
2022-08-26T02:01:40.239Z,27.92
2022-08-26T02:06:44.561Z,28.35
2022-08-26T02:11:47.985Z,29.88
2022-08-26T02:16:53.256Z,31.40
2022-08-26T02:22:03.851Z,34.60
2022-08-26T02:27:06.758Z,25.42
2022-08-26T02:32:10.732Z,35.13
2022-08-26T02:37:14.630Z,25.83
2022-08-26T02:42:20.419Z,30.25
2022-08-26T02:47:24.875Z,29.95
2022-08-26T02:52:28.030Z,25.45
2022-08-26T02:57:31.199Z,24.35
2022-08-26T03:02:33.992Z,32.38
2022-08-26T03:07:36.951Z,24.85
2022-08-26T03:12:41.115Z,28.95
2022-08-26T03:17:44.902Z,32.83
2022-08-26T03:22:47.636Z,29.15
2022-08-26T03:27:52.903Z,30.30
2022-08-26T03:32:55.564Z,27.63
2022-08-26T03:37:58.862Z,29.38
2022-08-26T03:43:03.431Z,33.72
2022-08-26T03:48:06.349Z,34.28
2022-08-26T03:53:09.214Z,28.17
2022-08-26T03:58:16.080Z,34.25
2022-08-26T04:03:42.141Z,26.83
2022-08-26T04:08:45.413Z,23.27
2022-08-26T04:13:49.616Z,28.67
2022-08-26T04:18:52.700Z,29.98
2022-08-26T04:23:55.830Z,23.70
2022-08-26T04:29:01.389Z,31.45
2022-08-26T04:34:06.054Z,30.90
2022-08-26T04:39:12.176Z,27.13
2022-08-26T04:44:15.173Z,24.65
2022-08-26T04:49:18.249Z,21.77
2022-08-26T04:54:21.146Z,28.45
2022-08-26T04:59:24.581Z,30.95
2022-08-26T05:04:27.566Z,19.70
2022-08-26T05:09:32.129Z,24.27
2022-08-26T05:14:35.093Z,22.88
2022-08-26T05:19:38.589Z,20.25
2022-08-26T05:24:46.609Z,24.25
2022-08-26T05:29:54.449Z,24.58
2022-08-26T05:34:57.555Z,16.02
2022-08-26T05:40:04.023Z,23.88
2022-08-26T05:45:07.889Z,17.05
2022-08-26T05:50:10.635Z,17.90
2022-08-26T05:55:14.914Z,12.18
2022-08-26T06:00:19.062Z,22.58
2022-08-26T06:05:22.348Z,16.13
2022-08-26T06:10:33.201Z,17.20
2022-08-26T06:15:42.048Z,15.77
2022-08-26T06:20:57.396Z,16.48
2022-08-26T06:26:01.832Z,18.25
2022-08-26T06:31:06.230Z,10.05
2022-08-26T06:36:09.509Z,15.68
2022-08-26T06:41:12.441Z,10.00
2022-08-26T06:46:21.670Z,14.00
2022-08-26T06:51:27.488Z,13.35
2022-08-26T06:56:42.793Z,15.68
2022-08-26T07:01:45.664Z,11.57
2022-08-26T07:06:52.254Z,13.80
2022-08-26T07:11:56.580Z,13.73
2022-08-26T07:17:02.683Z,13.40
2022-08-26T07:22:06.656Z,14.23
2022-08-26T07:27:15.785Z,10.25
2022-08-26T07:32:22.956Z,10.20
2022-08-26T07:37:26.048Z,13.93
2022-08-26T07:42:28.837Z,12.32
2022-08-26T07:47:31.669Z,12.25
2022-08-26T07:52:35.439Z,12.68
2022-08-26T07:57:39.905Z,8.45
2022-08-26T08:02:45.133Z,15.50
2022-08-26T08:07:49.833Z,10.52
2022-08-26T08:12:58.068Z,11.00
2022-08-26T08:18:04.051Z,11.07
2022-08-26T08:23:07.024Z,11.52
2022-08-26T08:28:10.008Z,10.05
2022-08-26T08:33:13.616Z,8.57
2022-08-26T08:38:16.630Z,7.53
2022-08-26T08:43:44.107Z,10.75
2022-08-26T08:48:52.517Z,10.57
2022-08-26T08:53:58.932Z,12.65
2022-08-26T08:59:13.353Z,8.68
2022-08-26T09:05:00.123Z,15.68
2022-08-26T09:10:24.877Z,13.18
2022-08-26T09:15:44.870Z,12.57
2022-08-26T09:20:59.387Z,8.43
2022-08-26T09:26:29.357Z,7.40
2022-08-26T09:31:36.765Z,9.20
2022-08-26T09:36:46.579Z,9.43
2022-08-26T09:42:07.340Z,12.23
2022-08-26T09:47:10.749Z,10.13
2022-08-26T09:52:21.860Z,9.85
2022-08-26T09:57:30.411Z,12.32
2022-08-26T10:02:33.395Z,12.75
2022-08-26T10:07:49.495Z,15.02
2022-08-26T10:12:56.603Z,10.40
2022-08-26T10:18:25.224Z,10.07
2022-08-26T10:23:32.984Z,9.37
2022-08-26T10:28:46.262Z,11.23
2022-08-26T10:33:51.791Z,9.27
2022-08-26T10:38:55.391Z,7.65
2022-08-26T10:44:00.594Z,8.73
2022-08-26T10:49:14.641Z,9.60
2022-08-26T10:54:39.679Z,10.57
2022-08-26T11:00:38.484Z,10.95
2022-08-26T11:05:41.337Z,7.78
2022-08-26T11:11:00.879Z,8.55
2022-08-26T11:16:03.691Z,11.00
2022-08-26T11:22:06.648Z,9.07
2022-08-26T11:27:12.303Z,10.13
2022-08-26T11:32:44.189Z,7.72
2022-08-26T11:37:53.640Z,9.73
2022-08-26T11:43:05.791Z,8.88
2022-08-26T11:48:20.975Z,7.85
2022-08-26T11:53:26.163Z,9.60
2022-08-26T11:58:29.249Z,8.00
2022-08-26T12:03:39.922Z,7.32
2022-08-26T12:08:45.149Z,14.48
2022-08-26T12:14:00.689Z,8.13
2022-08-26T12:19:22.090Z,14.13
2022-08-26T12:24:28.778Z,7.57
2022-08-26T12:29:31.590Z,8.68
2022-08-26T12:34:34.644Z,6.13
2022-08-26T12:39:40.398Z,6.53
2022-08-26T12:44:53.312Z,5.95
2022-08-26T12:50:08.550Z,10.80
2022-08-26T12:55:47.845Z,7.10
2022-08-26T13:00:51.889Z,8.63
2022-08-26T13:06:08.357Z,7.03
2022-08-26T13:11:23.723Z,6.30
2022-08-26T13:16:27.474Z,10.93
2022-08-26T13:21:37.288Z,6.35
2022-08-26T13:31:45.850Z,6.85
2022-08-26T13:36:51.173Z,9.48
2022-08-26T13:41:54.618Z,9.82
2022-08-26T13:46:57.243Z,10.23
2022-08-26T13:51:59.967Z,10.23
2022-08-26T13:57:02.669Z,9.45
2022-08-26T14:02:05.436Z,8.77
2022-08-26T14:07:08.503Z,9.40
2022-08-26T14:12:11.139Z,8.55
2022-08-26T14:17:19.838Z,9.85
2022-08-26T14:22:22.999Z,10.98
2022-08-26T14:27:25.888Z,11.73
2022-08-26T14:32:29.592Z,8.23
2022-08-26T14:37:33.265Z,9.63
2022-08-26T14:42:36.412Z,8.80
2022-08-26T14:47:39.766Z,9.95
2022-08-26T14:53:03.709Z,10.10
2022-08-26T14:58:06.719Z,7.20
2022-08-26T15:03:09.480Z,10.65
2022-08-26T15:08:13.005Z,10.93
2022-08-26T15:13:15.699Z,7.22
2022-08-26T15:18:18.327Z,13.68
2022-08-26T15:23:21.317Z,12.48
2022-08-26T15:28:24.047Z,7.63
2022-08-26T15:33:26.805Z,9.23
2022-08-26T15:38:34.147Z,9.63
2022-08-26T15:43:37.565Z,12.65
2022-08-26T15:48:40.659Z,11.98
2022-08-26T15:53:43.348Z,10.40
2022-08-26T15:58:46.175Z,13.20
2022-08-26T16:03:49.272Z,14.82
2022-08-26T16:08:51.920Z,12.35
2022-08-26T16:13:55.528Z,12.48
2022-08-26T16:18:58.840Z,11.23
2022-08-26T16:24:01.742Z,14.13
2022-08-26T16:29:08.832Z,11.48
2022-08-26T16:34:11.534Z,14.23
2022-08-26T16:39:14.320Z,16.30
2022-08-26T16:44:17.109Z,17.33
2022-08-26T16:49:19.989Z,17.70
2022-08-26T16:54:22.670Z,13.48
2022-08-26T16:59:25.468Z,17.35
2022-08-26T17:04:29.114Z,14.52
2022-08-26T17:09:32.036Z,16.20
2022-08-26T17:14:35.218Z,15.85
2022-08-26T17:19:41.732Z,17.65
2022-08-26T17:24:49.849Z,20.48
2022-08-26T17:29:52.530Z,21.48
2022-08-26T17:34:55.378Z,21.33
2022-08-26T17:39:58.590Z,19.25
2022-08-26T17:45:02.575Z,17.27
2022-08-26T17:50:10.408Z,21.63
2022-08-26T17:55:15.641Z,28.05
2022-08-26T18:00:21.681Z,22.83
2022-08-26T18:05:24.907Z,20.70
2022-08-26T18:10:27.929Z,31.48
2022-08-26T18:15:30.547Z,20.92
2022-08-26T18:20:33.484Z,22.55
2022-08-26T18:25:41.251Z,23.65
2022-08-26T18:30:44.776Z,23.80
2022-08-26T18:35:47.563Z,20.10
2022-08-26T18:40:50.335Z,21.67
2022-08-26T18:46:02.456Z,22.15
2022-08-26T18:51:06.948Z,25.17
2022-08-26T18:56:14.313Z,19.25
2022-08-26T19:01:23.250Z,20.85
2022-08-26T19:06:32.872Z,24.38
2022-08-26T19:11:37.290Z,16.98
2022-08-26T19:16:43.150Z,18.77
2022-08-26T19:21:47.054Z,23.52
2022-08-26T19:26:57.788Z,16.48
2022-08-26T19:32:02.017Z,21.02
2022-08-26T19:37:05.140Z,21.13
2022-08-26T19:42:07.783Z,17.38
2022-08-26T19:47:12.101Z,20.25
2022-08-26T19:52:15.205Z,18.75
2022-08-26T19:57:18.727Z,22.30
2022-08-26T20:02:21.571Z,20.88
2022-08-26T20:07:24.268Z,26.20
2022-08-26T20:12:27.609Z,21.55
2022-08-26T20:17:30.863Z,23.52
2022-08-26T20:22:33.853Z,20.75
2022-08-26T20:27:38.445Z,22.48
2022-08-26T20:32:42.260Z,32.70
2022-08-26T20:37:44.952Z,25.08
2022-08-26T20:42:48.036Z,20.00
2022-08-26T20:47:51.828Z,25.15
2022-08-26T20:52:55.250Z,28.52
2022-08-26T20:58:17.257Z,31.50
2022-08-26T21:03:20.230Z,29.30
2022-08-26T21:08:23.543Z,26.27
2022-08-26T21:13:27.309Z,22.55
2022-08-26T21:18:31.527Z,29.75
2022-08-26T21:23:36.297Z,25.00
2022-08-26T21:28:41.239Z,24.67
2022-08-26T21:33:43.969Z,25.80
2022-08-26T21:38:47.337Z,28.45
2022-08-26T21:43:53.829Z,22.33
2022-08-26T21:49:00.280Z,24.85
2022-08-26T21:54:10.505Z,26.58
2022-08-26T21:59:17.423Z,25.90
2022-08-26T22:04:20.621Z,22.85
2022-08-26T22:09:26.069Z,24.33
2022-08-26T22:14:30.879Z,25.80
2022-08-26T22:19:45.750Z,21.70
2022-08-26T22:24:49.321Z,24.25
2022-08-26T22:29:52.257Z,19.45
2022-08-26T22:34:54.941Z,28.15
2022-08-26T22:39:57.685Z,30.10
2022-08-26T22:45:02.270Z,21.88
2022-08-26T22:50:07.326Z,26.20
2022-08-26T22:55:11.170Z,23.63
2022-08-26T23:00:14.569Z,27.40
2022-08-26T23:05:17.867Z,21.17
2022-08-26T23:10:20.767Z,20.58
2022-08-26T23:15:23.599Z,24.33
2022-08-26T23:20:28.084Z,31.63
2022-08-26T23:25:32.569Z,17.77
2022-08-26T23:30:35.319Z,18.85
2022-08-26T23:35:38.800Z,20.52
2022-08-26T23:40:44.157Z,19.25
2022-08-26T23:45:47.032Z,28.55
2022-08-26T23:51:08.574Z,25.58
2022-08-26T23:56:16.104Z,27.40
